Time,TemperatureF,DewpointF,PressureIn,WindDirection,WindDirectionDegrees,WindSpeedMPH,WindSpeedGustMPH,Humidity,HourlyPrecipIn,Conditions,Clouds,dailyrainin,SoftwareType,DateUTC
2013-01-06 16:22:00,45.0,31.0,30.04,NW,308,1.0,7.0,58,0.00,,,0.03,,2013-01-06 21:22:00,
2013-01-06 16:33:00,45.0,31.0,30.04,NW,304,2.0,6.0,58,0.00,,,0.03,,2013-01-06 21:33:00,
2013-01-06 16:43:00,45.0,31.0,30.04,NW,304,2.0,6.0,58,0.00,,,0.03,,2013-01-06 21:43:00,
2013-01-06 16:53:00,45.0,32.0,30.04,NW,307,2.0,6.0,59,0.00,,,0.03,,2013-01-06 21:53:00,
2013-01-06 17:02:00,44.0,31.0,30.04,WNW,302,1.0,5.0,59,0.00,,,0.03,,2013-01-06 22:02:00,
2013-01-06 17:12:00,44.0,31.0,30.04,WNW,302,1.0,5.0,59,0.00,,,0.03,,2013-01-06 22:12:00,
2013-01-06 17:22:00,43.0,30.0,30.05,North,0,0.0,3.0,60,0.00,,,0.03,,2013-01-06 22:22:00,
2013-01-06 17:33:00,43.0,30.0,30.05,North,0,0.0,4.0,60,0.00,,,0.03,,2013-01-06 22:33:00,
2013-01-06 17:43:00,43.0,30.0,30.05,North,0,0.0,4.0,60,0.00,,,0.03,,2013-01-06 22:43:00,
2013-01-06 17:53:00,43.0,30.0,30.05,North,0,0.0,1.0,61,0.00,,,0.03,,2013-01-06 22:53:00,
2013-01-06 18:02:00,43.0,30.0,30.06,North,0,0.0,1.0,61,0.00,,,0.03,,2013-01-06 23:02:00,
2013-01-06 18:12:00,43.0,30.0,30.06,North,0,0.0,1.0,61,0.00,,,0.03,,2013-01-06 23:12:00,
2013-01-06 18:22:00,42.0,30.0,30.06,North,0,0.0,2.0,61,0.00,,,0.03,,2013-01-06 23:22:00,
2013-01-06 18:33:00,42.0,30.0,30.06,NW,304,2.0,6.0,61,0.00,,,0.03,,2013-01-06 23:33:00,
2013-01-06 18:43:00,42.0,30.0,30.06,NW,304,2.0,6.0,61,0.00,,,0.03,,2013-01-06 23:43:00,
2013-01-06 18:53:00,42.0,30.0,30.07,NW,308,2.0,5.0,61,0.00,,,0.03,,2013-01-06 23:53:00,
2013-01-06 19:02:00,42.0,30.0,30.07,North,0,0.0,5.0,61,0.00,,,0.03,,2013-01-07 00:02:00,
2013-01-06 19:12:00,42.0,30.0,30.07,North,0,0.0,5.0,61,0.00,,,0.03,,2013-01-07 00:12:00,
2013-01-06 19:23:00,42.0,30.0,30.07,North,0,0.0,3.0,62,0.00,,,0.03,,2013-01-07 00:23:00,
2013-01-06 19:33:00,42.0,30.0,30.08,North,0,0.0,2.0,62,0.00,,,0.03,,2013-01-07 00:33:00,
2013-01-06 19:42:00,42.0,30.0,30.08,North,0,0.0,2.0,62,0.00,,,0.03,,2013-01-07 00:42:00,
2013-01-06 19:53:00,42.0,30.0,30.09,NW,306,1.0,5.0,62,0.00,,,0.03,,2013-01-07 00:53:00,
2013-01-06 20:02:00,42.0,30.0,30.09,North,0,0.0,3.0,62,0.00,,,0.03,,2013-01-07 01:02:00,
2013-01-06 20:12:00,42.0,30.0,30.09,North,0,0.0,3.0,62,0.00,,,0.03,,2013-01-07 01:12:00,
2013-01-06 20:23:00,42.0,30.0,30.09,NW,305,1.0,5.0,62,0.00,,,0.03,,2013-01-07 01:23:00,
2013-01-06 20:32:00,42.0,30.0,30.09,North,0,0.0,3.0,63,0.00,,,0.03,,2013-01-07 01:32:00,
2013-01-06 20:42:00,42.0,30.0,30.09,North,0,0.0,3.0,63,0.00,,,0.03,,2013-01-07 01:42:00,
2013-01-06 20:53:00,42.0,30.0,30.09,North,0,0.0,4.0,63,0.00,,,0.03,,2013-01-07 01:53:00,
2013-01-06 21:02:00,42.0,30.0,30.08,North,0,0.0,6.0,63,0.00,,,0.03,,2013-01-07 02:02:00,
2013-01-06 21:12:00,42.0,30.0,30.08,North,0,0.0,6.0,63,0.00,,,0.03,,2013-01-07 02:12:00,
2013-01-06 21:23:00,42.0,30.0,30.09,NW,308,2.0,7.0,63,0.00,,,0.03,,2013-01-07 02:23:00,
2013-01-06 21:32:00,42.0,30.0,30.09,WNW,303,4.0,8.0,63,0.00,,,0.03,,2013-01-07 02:32:00,
2013-01-06 21:42:00,42.0,30.0,30.09,WNW,303,4.0,8.0,63,0.00,,,0.03,,2013-01-07 02:42:00,
2013-01-06 21:53:00,42.0,31.0,30.09,NW,305,2.0,7.0,64,0.00,,,0.03,,2013-01-07 02:53:00,
2013-01-06 22:02:00,42.0,31.0,30.10,WNW,303,3.0,6.0,64,0.00,,,0.03,,2013-01-07 03:02:00,
2013-01-06 22:12:00,42.0,31.0,30.10,WNW,303,3.0,6.0,64,0.00,,,0.03,,2013-01-07 03:12:00,
2013-01-06 22:22:00,42.0,31.0,30.11,NW,305,3.0,9.0,65,0.00,,,0.03,,2013-01-07 03:22:00,
2013-01-06 22:33:00,41.0,30.0,30.10,NW,312,1.0,5.0,65,0.00,,,0.03,,2013-01-07 03:33:00,
2013-01-06 22:43:00,41.0,30.0,30.10,NW,312,1.0,5.0,65,0.00,,,0.03,,2013-01-07 03:43:00,
2013-01-06 22:53:00,41.0,30.0,30.10,NW,306,1.0,9.0,65,0.00,,,0.03,,2013-01-07 03:53:00,
2013-01-06 23:02:00,41.0,30.0,30.11,NW,305,1.0,6.0,65,0.00,,,0.03,,2013-01-07 04:02:00,
2013-01-06 23:12:00,41.0,30.0,30.11,NW,305,1.0,6.0,65,0.00,,,0.03,,2013-01-07 04:12:00,
2013-01-06 23:22:00,41.0,31.0,30.11,North,0,0.0,5.0,66,0.00,,,0.03,,2013-01-07 04:22:00,
2013-01-06 23:32:00,41.0,31.0,30.11,NW,306,1.0,7.0,66,0.00,,,0.03,,2013-01-07 04:32:00,
2013-01-06 23:42:00,41.0,31.0,30.11,NW,306,1.0,7.0,66,0.00,,,0.03,,2013-01-07 04:42:00,
2013-01-06 23:52:00,41.0,31.0,30.12,NW,309,1.0,9.0,67,0.00,,,0.03,,2013-01-07 04:52:00,